sensor_id;sensor_type;location;lat;lon;timestamp;temperature;humidity
14511;DHT22;7341;50.930;4.038;2023-02-15T00:01:38;4.20;99.90
14511;DHT22;7341;50.930;4.038;2023-02-15T00:04:05;4.20;99.90
14511;DHT22;7341;50.930;4.038;2023-02-15T00:06:34;4.10;99.90
14511;DHT22;7341;50.930;4.038;2023-02-15T00:09:01;4.20;99.90
14511;DHT22;7341;50.930;4.038;2023-02-15T00:11:29;4.10;99.90
14511;DHT22;7341;50.930;4.038;2023-02-15T00:14:14;4.00;99.90
14511;DHT22;7341;50.930;4.038;2023-02-15T00:16:42;4.00;99.90
14511;DHT22;7341;50.930;4.038;2023-02-15T00:19:11;4.00;99.90
14511;DHT22;7341;50.930;4.038;2023-02-15T00:21:41;3.90;99.90
14511;DHT22;7341;50.930;4.038;2023-02-15T00:24:18;4.00;99.90
14511;DHT22;7341;50.930;4.038;2023-02-15T00:26:49;3.90;99.90
14511;DHT22;7341;50.930;4.038;2023-02-15T00:29:17;3.90;99.90
14511;DHT22;7341;50.930;4.038;2023-02-15T00:31:45;3.90;99.90
14511;DHT22;7341;50.930;4.038;2023-02-15T00:34:21;4.00;99.90
14511;DHT22;7341;50.930;4.038;2023-02-15T00:36:50;4.10;99.90
14511;DHT22;7341;50.930;4.038;2023-02-15T00:39:18;4.20;99.90
14511;DHT22;7341;50.930;4.038;2023-02-15T00:41:45;4.30;99.90
14511;DHT22;7341;50.930;4.038;2023-02-15T00:44:13;4.30;99.90
14511;DHT22;7341;50.930;4.038;2023-02-15T00:46:42;4.40;99.90
14511;DHT22;7341;50.930;4.038;2023-02-15T00:49:09;4.50;99.90
14511;DHT22;7341;50.930;4.038;2023-02-15T00:51:36;4.50;99.90
14511;DHT22;7341;50.930;4.038;2023-02-15T00:54:08;4.50;99.90
14511;DHT22;7341;50.930;4.038;2023-02-15T00:56:36;4.50;99.90
14511;DHT22;7341;50.930;4.038;2023-02-15T00:59:03;4.50;99.90
14511;DHT22;7341;50.930;4.038;2023-02-15T01:01:31;4.50;99.90
14511;DHT22;7341;50.930;4.038;2023-02-15T01:03:58;4.60;99.90
14511;DHT22;7341;50.930;4.038;2023-02-15T01:06:27;4.50;99.90
14511;DHT22;7341;50.930;4.038;2023-02-15T01:08:55;4.50;99.90
14511;DHT22;7341;50.930;4.038;2023-02-15T01:11:23;4.40;99.90
14511;DHT22;7341;50.930;4.038;2023-02-15T01:13:51;4.40;99.90
14511;DHT22;7341;50.930;4.038;2023-02-15T01:16:19;4.40;99.90
14511;DHT22;7341;50.930;4.038;2023-02-15T01:18:47;4.40;99.90
14511;DHT22;7341;50.930;4.038;2023-02-15T01:21:17;4.40;99.90
14511;DHT22;7341;50.930;4.038;2023-02-15T01:23:44;4.30;99.90
14511;DHT22;7341;50.930;4.038;2023-02-15T01:26:11;4.30;99.90
14511;DHT22;7341;50.930;4.038;2023-02-15T01:28:40;4.30;99.90
14511;DHT22;7341;50.930;4.038;2023-02-15T01:31:08;4.20;99.90
14511;DHT22;7341;50.930;4.038;2023-02-15T01:33:39;4.30;99.90
14511;DHT22;7341;50.930;4.038;2023-02-15T01:36:07;4.20;99.90
14511;DHT22;7341;50.930;4.038;2023-02-15T01:38:34;4.10;99.90
14511;DHT22;7341;50.930;4.038;2023-02-15T01:41:01;4.00;99.90
14511;DHT22;7341;50.930;4.038;2023-02-15T01:43:46;4.00;99.90
14511;DHT22;7341;50.930;4.038;2023-02-15T01:46:15;3.90;99.90
14511;DHT22;7341;50.930;4.038;2023-02-15T01:48:45;3.80;99.90
14511;DHT22;7341;50.930;4.038;2023-02-15T01:51:17;3.70;99.90
14511;DHT22;7341;50.930;4.038;2023-02-15T01:53:48;3.60;99.90
14511;DHT22;7341;50.930;4.038;2023-02-15T01:56:20;3.60;99.90
14511;DHT22;7341;50.930;4.038;2023-02-15T01:58:51;3.50;99.90
14511;DHT22;7341;50.930;4.038;2023-02-15T02:01:24;3.40;99.90
14511;DHT22;7341;50.930;4.038;2023-02-15T02:03:57;3.40;99.90
14511;DHT22;7341;50.930;4.038;2023-02-15T02:06:28;3.30;99.90
14511;DHT22;7341;50.930;4.038;2023-02-15T02:08:57;3.10;99.90
14511;DHT22;7341;50.930;4.038;2023-02-15T02:11:24;3.10;99.90
14511;DHT22;7341;50.930;4.038;2023-02-15T02:13:54;3.10;99.90
14511;DHT22;7341;50.930;4.038;2023-02-15T02:16:24;3.10;99.90
14511;DHT22;7341;50.930;4.038;2023-02-15T02:19:19;3.10;99.90
14511;DHT22;7341;50.930;4.038;2023-02-15T02:22:13;3.10;99.90
14511;DHT22;7341;50.930;4.038;2023-02-15T02:24:59;3.10;99.90
14511;DHT22;7341;50.930;4.038;2023-02-15T02:27:34;3.10;99.90
14511;DHT22;7341;50.930;4.038;2023-02-15T02:30:55;3.10;99.90
14511;DHT22;7341;50.930;4.038;2023-02-15T02:33:51;3.00;99.90
14511;DHT22;7341;50.930;4.038;2023-02-15T02:36:27;3.00;99.90
14511;DHT22;7341;50.930;4.038;2023-02-15T02:39:20;2.90;99.90
14511;DHT22;7341;50.930;4.038;2023-02-15T02:41:55;2.90;99.90
14511;DHT22;7341;50.930;4.038;2023-02-15T02:44:25;2.90;99.90
14511;DHT22;7341;50.930;4.038;2023-02-15T02:46:57;2.90;99.90
14511;DHT22;7341;50.930;4.038;2023-02-15T02:49:32;2.80;99.90
14511;DHT22;7341;50.930;4.038;2023-02-15T02:52:01;2.80;99.90
14511;DHT22;7341;50.930;4.038;2023-02-15T02:54:29;2.90;99.90
14511;DHT22;7341;50.930;4.038;2023-02-15T02:56:59;2.90;99.90
14511;DHT22;7341;50.930;4.038;2023-02-15T02:59:31;2.70;99.90
14511;DHT22;7341;50.930;4.038;2023-02-15T03:02:03;2.70;99.90
14511;DHT22;7341;50.930;4.038;2023-02-15T03:04:36;2.70;99.90
14511;DHT22;7341;50.930;4.038;2023-02-15T03:07:06;2.70;99.90
14511;DHT22;7341;50.930;4.038;2023-02-15T03:09:36;2.70;99.90
14511;DHT22;7341;50.930;4.038;2023-02-15T03:12:09;2.70;99.90
14511;DHT22;7341;50.930;4.038;2023-02-15T03:14:37;2.70;99.90
14511;DHT22;7341;50.930;4.038;2023-02-15T03:17:06;2.80;99.90
14511;DHT22;7341;50.930;4.038;2023-02-15T03:19:39;2.70;99.90
14511;DHT22;7341;50.930;4.038;2023-02-15T03:22:08;2.70;99.90
14511;DHT22;7341;50.930;4.038;2023-02-15T03:24:41;2.60;99.90
14511;DHT22;7341;50.930;4.038;2023-02-15T03:27:12;2.60;99.90
14511;DHT22;7341;50.930;4.038;2023-02-15T03:29:43;2.60;99.90
14511;DHT22;7341;50.930;4.038;2023-02-15T03:32:12;2.50;99.90
14511;DHT22;7341;50.930;4.038;2023-02-15T03:34:42;2.40;99.90
14511;DHT22;7341;50.930;4.038;2023-02-15T03:37:13;2.30;99.90
14511;DHT22;7341;50.930;4.038;2023-02-15T03:39:47;2.40;99.90
14511;DHT22;7341;50.930;4.038;2023-02-15T03:42:19;2.30;99.90
14511;DHT22;7341;50.930;4.038;2023-02-15T03:44:54;2.30;99.90
14511;DHT22;7341;50.930;4.038;2023-02-15T03:47:25;2.30;99.90
14511;DHT22;7341;50.930;4.038;2023-02-15T03:49:57;2.30;99.90
14511;DHT22;7341;50.930;4.038;2023-02-15T03:52:27;2.30;99.90
14511;DHT22;7341;50.930;4.038;2023-02-15T03:54:56;2.40;99.90
14511;DHT22;7341;50.930;4.038;2023-02-15T03:57:24;2.50;99.90
14511;DHT22;7341;50.930;4.038;2023-02-15T04:00:13;2.60;99.90
14511;DHT22;7341;50.930;4.038;2023-02-15T04:03:21;2.60;99.90
14511;DHT22;7341;50.930;4.038;2023-02-15T04:05:50;2.70;99.90
14511;DHT22;7341;50.930;4.038;2023-02-15T04:08:17;2.70;99.90
14511;DHT22;7341;50.930;4.038;2023-02-15T04:10:44;2.80;99.90
14511;DHT22;7341;50.930;4.038;2023-02-15T04:13:21;2.90;99.90
14511;DHT22;7341;50.930;4.038;2023-02-15T04:15:48;3.00;99.90
14511;DHT22;7341;50.930;4.038;2023-02-15T04:18:30;2.90;99.90
14511;DHT22;7341;50.930;4.038;2023-02-15T04:21:16;3.00;99.90
14511;DHT22;7341;50.930;4.038;2023-02-15T04:24:00;3.00;99.90
14511;DHT22;7341;50.930;4.038;2023-02-15T04:26:44;2.90;99.90
14511;DHT22;7341;50.930;4.038;2023-02-15T04:29:13;2.90;99.90
14511;DHT22;7341;50.930;4.038;2023-02-15T04:31:40;2.90;99.90
14511;DHT22;7341;50.930;4.038;2023-02-15T04:34:08;2.90;99.90
14511;DHT22;7341;50.930;4.038;2023-02-15T04:36:36;2.80;99.90
14511;DHT22;7341;50.930;4.038;2023-02-15T04:39:04;2.70;99.90
14511;DHT22;7341;50.930;4.038;2023-02-15T04:41:31;2.70;99.90
14511;DHT22;7341;50.930;4.038;2023-02-15T04:43:58;2.70;99.90
14511;DHT22;7341;50.930;4.038;2023-02-15T04:46:26;2.70;99.90
14511;DHT22;7341;50.930;4.038;2023-02-15T04:48:53;2.80;99.90
14511;DHT22;7341;50.930;4.038;2023-02-15T04:51:20;2.70;99.90
14511;DHT22;7341;50.930;4.038;2023-02-15T04:53:48;2.70;99.90
14511;DHT22;7341;50.930;4.038;2023-02-15T04:56:18;2.70;99.90
14511;DHT22;7341;50.930;4.038;2023-02-15T04:58:46;2.70;99.90
14511;DHT22;7341;50.930;4.038;2023-02-15T05:01:13;2.70;99.90
14511;DHT22;7341;50.930;4.038;2023-02-15T05:03:40;2.80;99.90
14511;DHT22;7341;50.930;4.038;2023-02-15T05:06:07;2.80;99.90
14511;DHT22;7341;50.930;4.038;2023-02-15T05:08:34;2.70;99.90
14511;DHT22;7341;50.930;4.038;2023-02-15T05:11:02;2.70;99.90
14511;DHT22;7341;50.930;4.038;2023-02-15T05:13:28;2.80;99.90
14511;DHT22;7341;50.930;4.038;2023-02-15T05:15:55;2.70;99.90
14511;DHT22;7341;50.930;4.038;2023-02-15T05:18:22;2.70;99.90
14511;DHT22;7341;50.930;4.038;2023-02-15T05:20:49;2.60;99.90
14511;DHT22;7341;50.930;4.038;2023-02-15T05:23:16;2.60;99.90
14511;DHT22;7341;50.930;4.038;2023-02-15T05:25:46;2.60;99.90
14511;DHT22;7341;50.930;4.038;2023-02-15T05:28:33;2.70;99.90
14511;DHT22;7341;50.930;4.038;2023-02-15T05:31:04;2.70;99.90
14511;DHT22;7341;50.930;4.038;2023-02-15T05:33:31;2.70;99.90
14511;DHT22;7341;50.930;4.038;2023-02-15T05:35:58;2.80;99.90
14511;DHT22;7341;50.930;4.038;2023-02-15T05:38:25;2.80;99.90
14511;DHT22;7341;50.930;4.038;2023-02-15T05:40:52;2.80;99.90
14511;DHT22;7341;50.930;4.038;2023-02-15T05:43:19;2.80;99.90
14511;DHT22;7341;50.930;4.038;2023-02-15T05:45:48;2.80;99.90
14511;DHT22;7341;50.930;4.038;2023-02-15T05:48:17;2.80;99.90
14511;DHT22;7341;50.930;4.038;2023-02-15T05:50:44;2.80;99.90
14511;DHT22;7341;50.930;4.038;2023-02-15T05:53:12;2.80;99.90
14511;DHT22;7341;50.930;4.038;2023-02-15T05:55:40;2.90;99.90
14511;DHT22;7341;50.930;4.038;2023-02-15T05:58:07;2.80;99.90
14511;DHT22;7341;50.930;4.038;2023-02-15T06:00:34;2.80;99.90
14511;DHT22;7341;50.930;4.038;2023-02-15T06:03:02;2.70;99.90
14511;DHT22;7341;50.930;4.038;2023-02-15T06:05:29;2.80;99.90
14511;DHT22;7341;50.930;4.038;2023-02-15T06:07:56;2.80;99.90
14511;DHT22;7341;50.930;4.038;2023-02-15T06:10:23;2.70;99.90
14511;DHT22;7341;50.930;4.038;2023-02-15T06:12:50;2.70;99.90
14511;DHT22;7341;50.930;4.038;2023-02-15T06:15:17;2.70;99.90
14511;DHT22;7341;50.930;4.038;2023-02-15T06:17:44;2.70;99.90
14511;DHT22;7341;50.930;4.038;2023-02-15T06:20:14;2.60;99.90
14511;DHT22;7341;50.930;4.038;2023-02-15T06:22:41;2.60;99.90
14511;DHT22;7341;50.930;4.038;2023-02-15T06:25:08;2.50;99.90
14511;DHT22;7341;50.930;4.038;2023-02-15T06:27:37;2.50;99.90
14511;DHT22;7341;50.930;4.038;2023-02-15T06:30:06;2.50;99.90
14511;DHT22;7341;50.930;4.038;2023-02-15T06:32:33;2.50;99.90
14511;DHT22;7341;50.930;4.038;2023-02-15T06:35:00;2.50;99.90
14511;DHT22;7341;50.930;4.038;2023-02-15T06:37:31;2.50;99.90
14511;DHT22;7341;50.930;4.038;2023-02-15T06:39:58;2.60;99.90
14511;DHT22;7341;50.930;4.038;2023-02-15T06:42:29;2.60;99.90
14511;DHT22;7341;50.930;4.038;2023-02-15T06:44:56;2.50;99.90
14511;DHT22;7341;50.930;4.038;2023-02-15T06:47:26;2.60;99.90
14511;DHT22;7341;50.930;4.038;2023-02-15T06:49:52;2.60;99.90
14511;DHT22;7341;50.930;4.038;2023-02-15T06:52:19;2.60;99.90
14511;DHT22;7341;50.930;4.038;2023-02-15T06:54:48;2.70;99.90
14511;DHT22;7341;50.930;4.038;2023-02-15T06:57:15;2.70;99.90
14511;DHT22;7341;50.930;4.038;2023-02-15T06:59:43;2.80;99.90
14511;DHT22;7341;50.930;4.038;2023-02-15T07:02:11;2.80;99.90
14511;DHT22;7341;50.930;4.038;2023-02-15T07:04:39;2.80;99.90
14511;DHT22;7341;50.930;4.038;2023-02-15T07:07:08;2.80;99.90
14511;DHT22;7341;50.930;4.038;2023-02-15T07:09:36;2.80;99.90
14511;DHT22;7341;50.930;4.038;2023-02-15T07:12:04;2.80;99.90
14511;DHT22;7341;50.930;4.038;2023-02-15T07:14:49;2.80;99.90
14511;DHT22;7341;50.930;4.038;2023-02-15T07:17:16;2.80;99.90
14511;DHT22;7341;50.930;4.038;2023-02-15T07:19:44;2.80;99.90
14511;DHT22;7341;50.930;4.038;2023-02-15T07:22:13;2.80;99.90
14511;DHT22;7341;50.930;4.038;2023-02-15T07:24:40;2.80;99.90
14511;DHT22;7341;50.930;4.038;2023-02-15T07:27:08;2.80;99.90
14511;DHT22;7341;50.930;4.038;2023-02-15T07:29:35;2.80;99.90
14511;DHT22;7341;50.930;4.038;2023-02-15T07:32:02;2.60;99.90
14511;DHT22;7341;50.930;4.038;2023-02-15T07:34:29;2.70;99.90
14511;DHT22;7341;50.930;4.038;2023-02-15T07:36:55;2.80;99.90
14511;DHT22;7341;50.930;4.038;2023-02-15T07:39:23;2.80;99.90
14511;DHT22;7341;50.930;4.038;2023-02-15T07:41:51;2.90;99.90
14511;DHT22;7341;50.930;4.038;2023-02-15T07:44:19;2.90;99.90
14511;DHT22;7341;50.930;4.038;2023-02-15T07:46:46;2.90;99.90
14511;DHT22;7341;50.930;4.038;2023-02-15T07:49:13;3.00;99.90
14511;DHT22;7341;50.930;4.038;2023-02-15T07:51:41;3.00;99.90
14511;DHT22;7341;50.930;4.038;2023-02-15T07:54:08;3.00;99.90
14511;DHT22;7341;50.930;4.038;2023-02-15T07:56:36;3.10;99.90
14511;DHT22;7341;50.930;4.038;2023-02-15T07:59:04;3.10;99.90
14511;DHT22;7341;50.930;4.038;2023-02-15T08:01:34;3.40;99.90
14511;DHT22;7341;50.930;4.038;2023-02-15T08:04:03;3.40;99.90
14511;DHT22;7341;50.930;4.038;2023-02-15T08:06:34;3.30;99.90
14511;DHT22;7341;50.930;4.038;2023-02-15T08:09:03;3.40;99.90
14511;DHT22;7341;50.930;4.038;2023-02-15T08:11:31;3.60;99.90
14511;DHT22;7341;50.930;4.038;2023-02-15T08:14:07;3.60;99.90
14511;DHT22;7341;50.930;4.038;2023-02-15T08:16:38;3.60;99.90
14511;DHT22;7341;50.930;4.038;2023-02-15T08:19:06;3.70;99.90
14511;DHT22;7341;50.930;4.038;2023-02-15T08:21:36;3.70;99.90
14511;DHT22;7341;50.930;4.038;2023-02-15T08:24:04;3.80;99.90
14511;DHT22;7341;50.930;4.038;2023-02-15T08:26:32;3.90;99.90
14511;DHT22;7341;50.930;4.038;2023-02-15T08:29:00;4.00;99.90
14511;DHT22;7341;50.930;4.038;2023-02-15T08:31:29;4.10;99.90
14511;DHT22;7341;50.930;4.038;2023-02-15T08:33:58;4.30;99.90
14511;DHT22;7341;50.930;4.038;2023-02-15T08:36:27;4.30;99.90
14511;DHT22;7341;50.930;4.038;2023-02-15T08:38:57;4.40;99.90
14511;DHT22;7341;50.930;4.038;2023-02-15T08:41:25;4.50;99.90
14511;DHT22;7341;50.930;4.038;2023-02-15T08:43:53;4.50;99.90
14511;DHT22;7341;50.930;4.038;2023-02-15T08:46:21;4.60;99.90
14511;DHT22;7341;50.930;4.038;2023-02-15T08:48:48;4.70;99.90
14511;DHT22;7341;50.930;4.038;2023-02-15T08:51:18;4.80;99.90
14511;DHT22;7341;50.930;4.038;2023-02-15T08:53:47;4.80;99.90
14511;DHT22;7341;50.930;4.038;2023-02-15T08:56:15;4.90;99.90
14511;DHT22;7341;50.930;4.038;2023-02-15T08:58:44;5.00;99.90
14511;DHT22;7341;50.930;4.038;2023-02-15T09:01:15;5.00;99.90
14511;DHT22;7341;50.930;4.038;2023-02-15T09:03:44;5.10;99.90
14511;DHT22;7341;50.930;4.038;2023-02-15T09:06:12;5.20;99.90
14511;DHT22;7341;50.930;4.038;2023-02-15T09:08:43;5.30;99.90
14511;DHT22;7341;50.930;4.038;2023-02-15T09:11:15;5.40;99.90
14511;DHT22;7341;50.930;4.038;2023-02-15T09:13:48;5.40;99.90
14511;DHT22;7341;50.930;4.038;2023-02-15T09:16:26;5.50;99.90
14511;DHT22;7341;50.930;4.038;2023-02-15T09:18:56;5.70;99.90
14511;DHT22;7341;50.930;4.038;2023-02-15T09:21:25;5.70;99.90
14511;DHT22;7341;50.930;4.038;2023-02-15T09:23:56;5.80;99.90
14511;DHT22;7341;50.930;4.038;2023-02-15T09:26:24;5.70;99.90
14511;DHT22;7341;50.930;4.038;2023-02-15T09:28:56;5.80;99.90
14511;DHT22;7341;50.930;4.038;2023-02-15T09:31:31;5.80;99.90
14511;DHT22;7341;50.930;4.038;2023-02-15T09:33:59;5.90;99.90
14511;DHT22;7341;50.930;4.038;2023-02-15T09:36:28;6.10;99.90
14511;DHT22;7341;50.930;4.038;2023-02-15T09:39:03;6.20;99.90
14511;DHT22;7341;50.930;4.038;2023-02-15T09:41:50;6.20;99.90
14511;DHT22;7341;50.930;4.038;2023-02-15T09:44:31;6.40;99.90
14511;DHT22;7341;50.930;4.038;2023-02-15T09:47:14;6.50;99.90
14511;DHT22;7341;50.930;4.038;2023-02-15T09:49:50;6.60;99.90
14511;DHT22;7341;50.930;4.038;2023-02-15T09:52:38;6.70;99.90
14511;DHT22;7341;50.930;4.038;2023-02-15T09:55:28;6.70;99.90
14511;DHT22;7341;50.930;4.038;2023-02-15T09:58:07;6.70;99.90
14511;DHT22;7341;50.930;4.038;2023-02-15T10:00:42;6.80;99.90
14511;DHT22;7341;50.930;4.038;2023-02-15T10:03:23;6.90;99.90
14511;DHT22;7341;50.930;4.038;2023-02-15T10:06:05;7.00;99.90
14511;DHT22;7341;50.930;4.038;2023-02-15T10:08:59;7.30;99.90
14511;DHT22;7341;50.930;4.038;2023-02-15T10:11:41;7.50;99.90
14511;DHT22;7341;50.930;4.038;2023-02-15T10:14:36;7.60;99.90
14511;DHT22;7341;50.930;4.038;2023-02-15T10:17:15;7.80;99.90
14511;DHT22;7341;50.930;4.038;2023-02-15T10:19:54;7.90;99.90
14511;DHT22;7341;50.930;4.038;2023-02-15T10:22:31;8.00;99.90
14511;DHT22;7341;50.930;4.038;2023-02-15T10:25:11;8.00;99.90
14511;DHT22;7341;50.930;4.038;2023-02-15T10:27:46;7.90;99.90
14511;DHT22;7341;50.930;4.038;2023-02-15T10:30:14;7.80;99.90
14511;DHT22;7341;50.930;4.038;2023-02-15T10:32:50;7.90;99.90
14511;DHT22;7341;50.930;4.038;2023-02-15T10:35:25;8.10;99.90
14511;DHT22;7341;50.930;4.038;2023-02-15T10:41:02;8.30;99.90
14511;DHT22;7341;50.930;4.038;2023-02-15T10:43:45;8.50;99.90
14511;DHT22;7341;50.930;4.038;2023-02-15T10:46:28;8.60;99.90
14511;DHT22;7341;50.930;4.038;2023-02-15T10:49:15;8.70;99.90
14511;DHT22;7341;50.930;4.038;2023-02-15T10:51:59;8.70;99.90
14511;DHT22;7341;50.930;4.038;2023-02-15T10:54:36;8.70;99.90
14511;DHT22;7341;50.930;4.038;2023-02-15T10:57:12;8.70;99.90
14511;DHT22;7341;50.930;4.038;2023-02-15T11:00:00;8.80;99.90
14511;DHT22;7341;50.930;4.038;2023-02-15T11:02:39;8.90;99.90
14511;DHT22;7341;50.930;4.038;2023-02-15T11:05:24;8.80;99.90
14511;DHT22;7341;50.930;4.038;2023-02-15T11:07:56;8.70;99.90
14511;DHT22;7341;50.930;4.038;2023-02-15T11:10:29;8.80;99.90
14511;DHT22;7341;50.930;4.038;2023-02-15T11:12:58;8.80;99.90
14511;DHT22;7341;50.930;4.038;2023-02-15T11:15:31;8.90;99.90
14511;DHT22;7341;50.930;4.038;2023-02-15T11:18:06;8.90;99.90
14511;DHT22;7341;50.930;4.038;2023-02-15T11:20:41;9.10;99.90
14511;DHT22;7341;50.930;4.038;2023-02-15T11:23:13;9.10;99.90
14511;DHT22;7341;50.930;4.038;2023-02-15T11:25:43;8.90;99.90
14511;DHT22;7341;50.930;4.038;2023-02-15T11:28:17;8.90;99.90
14511;DHT22;7341;50.930;4.038;2023-02-15T11:30:50;9.00;99.90
14511;DHT22;7341;50.930;4.038;2023-02-15T11:33:20;9.10;99.90
14511;DHT22;7341;50.930;4.038;2023-02-15T11:35:52;9.40;99.90
14511;DHT22;7341;50.930;4.038;2023-02-15T11:38:22;9.40;99.90
14511;DHT22;7341;50.930;4.038;2023-02-15T11:40:54;9.50;99.90
14511;DHT22;7341;50.930;4.038;2023-02-15T11:43:28;9.60;99.90
14511;DHT22;7341;50.930;4.038;2023-02-15T11:45:58;9.70;99.90
14511;DHT22;7341;50.930;4.038;2023-02-15T11:48:25;9.60;99.90
14511;DHT22;7341;50.930;4.038;2023-02-15T11:50:52;9.70;99.90
14511;DHT22;7341;50.930;4.038;2023-02-15T11:53:21;9.90;99.90
14511;DHT22;7341;50.930;4.038;2023-02-15T11:55:50;9.90;99.90
14511;DHT22;7341;50.930;4.038;2023-02-15T11:58:25;10.00;99.90
14511;DHT22;7341;50.930;4.038;2023-02-15T12:00:58;10.10;99.90
14511;DHT22;7341;50.930;4.038;2023-02-15T12:03:33;9.90;99.90
14511;DHT22;7341;50.930;4.038;2023-02-15T12:06:02;10.00;99.90
14511;DHT22;7341;50.930;4.038;2023-02-15T12:08:37;10.10;99.90
14511;DHT22;7341;50.930;4.038;2023-02-15T12:11:07;10.00;99.90
14511;DHT22;7341;50.930;4.038;2023-02-15T12:13:54;10.10;99.90
14511;DHT22;7341;50.930;4.038;2023-02-15T12:16:23;10.10;99.90
14511;DHT22;7341;50.930;4.038;2023-02-15T12:18:52;10.30;99.90
14511;DHT22;7341;50.930;4.038;2023-02-15T12:21:26;10.40;99.90
14511;DHT22;7341;50.930;4.038;2023-02-15T12:23:55;10.40;99.90
14511;DHT22;7341;50.930;4.038;2023-02-15T12:26:27;10.60;99.90
14511;DHT22;7341;50.930;4.038;2023-02-15T12:28:57;10.40;99.90
14511;DHT22;7341;50.930;4.038;2023-02-15T12:31:33;10.50;99.90
14511;DHT22;7341;50.930;4.038;2023-02-15T12:34:09;10.60;99.90
14511;DHT22;7341;50.930;4.038;2023-02-15T12:36:42;10.60;99.90
14511;DHT22;7341;50.930;4.038;2023-02-15T12:39:20;10.80;99.90
14511;DHT22;7341;50.930;4.038;2023-02-15T12:41:59;10.90;99.90
14511;DHT22;7341;50.930;4.038;2023-02-15T12:44:27;11.00;99.90
14511;DHT22;7341;50.930;4.038;2023-02-15T12:46:58;11.00;99.90
14511;DHT22;7341;50.930;4.038;2023-02-15T12:49:27;11.30;99.90
14511;DHT22;7341;50.930;4.038;2023-02-15T12:51:56;11.40;99.90
14511;DHT22;7341;50.930;4.038;2023-02-15T12:54:33;11.50;99.90
14511;DHT22;7341;50.930;4.038;2023-02-15T12:57:24;11.60;99.90
14511;DHT22;7341;50.930;4.038;2023-02-15T12:59:54;11.60;99.90
14511;DHT22;7341;50.930;4.038;2023-02-15T13:02:25;11.60;99.90
14511;DHT22;7341;50.930;4.038;2023-02-15T13:04:53;11.60;99.90
14511;DHT22;7341;50.930;4.038;2023-02-15T13:07:20;11.70;99.90
14511;DHT22;7341;50.930;4.038;2023-02-15T13:09:48;11.70;99.90
14511;DHT22;7341;50.930;4.038;2023-02-15T13:12:20;11.80;99.90
14511;DHT22;7341;50.930;4.038;2023-02-15T13:14:50;12.00;99.90
14511;DHT22;7341;50.930;4.038;2023-02-15T13:17:20;12.00;99.90
14511;DHT22;7341;50.930;4.038;2023-02-15T13:19:52;12.30;99.90
14511;DHT22;7341;50.930;4.038;2023-02-15T13:22:22;12.30;99.90
14511;DHT22;7341;50.930;4.038;2023-02-15T13:24:54;12.30;99.90
14511;DHT22;7341;50.930;4.038;2023-02-15T13:27:24;12.40;99.90
14511;DHT22;7341;50.930;4.038;2023-02-15T13:29:55;12.30;99.90
14511;DHT22;7341;50.930;4.038;2023-02-15T13:32:29;12.20;99.90
14511;DHT22;7341;50.930;4.038;2023-02-15T13:34:59;12.20;99.90
14511;DHT22;7341;50.930;4.038;2023-02-15T13:40:25;12.10;99.90
14511;DHT22;7341;50.930;4.038;2023-02-15T13:42:56;12.10;99.90
14511;DHT22;7341;50.930;4.038;2023-02-15T13:45:40;12.10;99.90
14511;DHT22;7341;50.930;4.038;2023-02-15T13:48:16;12.20;99.90
14511;DHT22;7341;50.930;4.038;2023-02-15T13:51:06;12.30;99.90
14511;DHT22;7341;50.930;4.038;2023-02-15T13:54:05;12.50;99.90
14511;DHT22;7341;50.930;4.038;2023-02-15T13:56:44;12.50;99.90
14511;DHT22;7341;50.930;4.038;2023-02-15T13:59:30;12.60;99.90
14511;DHT22;7341;50.930;4.038;2023-02-15T14:02:06;12.60;99.90
14511;DHT22;7341;50.930;4.038;2023-02-15T14:04:57;12.60;99.90
14511;DHT22;7341;50.930;4.038;2023-02-15T14:07:47;12.70;99.90
14511;DHT22;7341;50.930;4.038;2023-02-15T14:10:23;12.60;99.90
14511;DHT22;7341;50.930;4.038;2023-02-15T14:15:45;12.50;99.90
14511;DHT22;7341;50.930;4.038;2023-02-15T14:18:21;12.50;99.90
14511;DHT22;7341;50.930;4.038;2023-02-15T14:21:00;12.70;99.90
14511;DHT22;7341;50.930;4.038;2023-02-15T14:23:42;12.60;99.90
14511;DHT22;7341;50.930;4.038;2023-02-15T14:26:15;12.60;99.90
14511;DHT22;7341;50.930;4.038;2023-02-15T14:28:51;12.60;99.90
14511;DHT22;7341;50.930;4.038;2023-02-15T14:31:26;12.50;99.90
14511;DHT22;7341;50.930;4.038;2023-02-15T14:33:56;12.60;99.90
14511;DHT22;7341;50.930;4.038;2023-02-15T14:36:24;12.70;99.90
14511;DHT22;7341;50.930;4.038;2023-02-15T14:39:05;12.70;99.90
14511;DHT22;7341;50.930;4.038;2023-02-15T14:41:57;12.70;99.90
14511;DHT22;7341;50.930;4.038;2023-02-15T14:44:30;12.70;99.90
14511;DHT22;7341;50.930;4.038;2023-02-15T14:47:02;12.70;99.90
14511;DHT22;7341;50.930;4.038;2023-02-15T14:49:32;12.70;99.90
14511;DHT22;7341;50.930;4.038;2023-02-15T14:52:03;12.70;99.90
14511;DHT22;7341;50.930;4.038;2023-02-15T14:54:57;12.70;99.90
14511;DHT22;7341;50.930;4.038;2023-02-15T14:57:34;12.60;99.90
14511;DHT22;7341;50.930;4.038;2023-02-15T15:02:47;12.70;99.90
14511;DHT22;7341;50.930;4.038;2023-02-15T15:05:18;12.60;99.90
14511;DHT22;7341;50.930;4.038;2023-02-15T15:07:48;12.50;99.90
14511;DHT22;7341;50.930;4.038;2023-02-15T15:10:37;12.60;99.90
14511;DHT22;7341;50.930;4.038;2023-02-15T15:13:37;12.70;99.90
14511;DHT22;7341;50.930;4.038;2023-02-15T15:19:10;12.70;99.90
14511;DHT22;7341;50.930;4.038;2023-02-15T15:21:56;12.70;99.90
14511;DHT22;7341;50.930;4.038;2023-02-15T15:24:50;12.80;99.90
14511;DHT22;7341;50.930;4.038;2023-02-15T15:27:41;12.80;99.90
14511;DHT22;7341;50.930;4.038;2023-02-15T15:34:06;12.60;99.90
14511;DHT22;7341;50.930;4.038;2023-02-15T15:37:23;12.60;99.90
14511;DHT22;7341;50.930;4.038;2023-02-15T15:46:11;12.60;99.90
14511;DHT22;7341;50.930;4.038;2023-02-15T15:48:41;12.60;99.90
14511;DHT22;7341;50.930;4.038;2023-02-15T15:51:14;12.80;99.90
14511;DHT22;7341;50.930;4.038;2023-02-15T15:53:45;12.60;99.90
14511;DHT22;7341;50.930;4.038;2023-02-15T15:56:19;12.50;99.90
14511;DHT22;7341;50.930;4.038;2023-02-15T15:58:50;12.50;99.90
14511;DHT22;7341;50.930;4.038;2023-02-15T16:01:26;12.40;99.90
14511;DHT22;7341;50.930;4.038;2023-02-15T16:03:56;12.40;99.90
14511;DHT22;7341;50.930;4.038;2023-02-15T16:06:28;12.40;99.90
14511;DHT22;7341;50.930;4.038;2023-02-15T16:08:55;12.30;99.90
14511;DHT22;7341;50.930;4.038;2023-02-15T16:11:24;12.20;99.90
14511;DHT22;7341;50.930;4.038;2023-02-15T16:13:52;12.10;99.90
14511;DHT22;7341;50.930;4.038;2023-02-15T16:16:25;12.00;99.90
14511;DHT22;7341;50.930;4.038;2023-02-15T16:18:54;12.10;99.90
14511;DHT22;7341;50.930;4.038;2023-02-15T16:21:28;12.40;99.90
14511;DHT22;7341;50.930;4.038;2023-02-15T16:29:47;12.20;99.90
14511;DHT22;7341;50.930;4.038;2023-02-15T16:32:20;12.00;99.90
14511;DHT22;7341;50.930;4.038;2023-02-15T16:34:52;12.00;99.90
14511;DHT22;7341;50.930;4.038;2023-02-15T16:37:20;11.80;99.90
14511;DHT22;7341;50.930;4.038;2023-02-15T16:39:49;11.70;99.90
14511;DHT22;7341;50.930;4.038;2023-02-15T16:42:17;11.60;99.90
14511;DHT22;7341;50.930;4.038;2023-02-15T16:44:45;11.60;99.90
14511;DHT22;7341;50.930;4.038;2023-02-15T16:47:16;11.60;99.90
14511;DHT22;7341;50.930;4.038;2023-02-15T16:49:48;11.50;99.90
14511;DHT22;7341;50.930;4.038;2023-02-15T16:52:18;11.30;99.90
14511;DHT22;7341;50.930;4.038;2023-02-15T16:54:50;11.30;99.90
14511;DHT22;7341;50.930;4.038;2023-02-15T16:57:20;11.20;99.90
14511;DHT22;7341;50.930;4.038;2023-02-15T16:59:48;11.20;99.90
14511;DHT22;7341;50.930;4.038;2023-02-15T17:02:17;11.20;99.90